sensor_id;sensor_type;location;lat;lon;timestamp;P1;durP1;ratioP1;P2;durP2;ratioP2
17157;SDS011;37344;51.948;7.622;2022-09-17T00:01:50;2.17;;;0.60;;
17157;SDS011;37344;51.948;7.622;2022-09-17T00:04:18;3.67;;;0.73;;
17157;SDS011;37344;51.948;7.622;2022-09-17T00:06:45;2.73;;;0.73;;
17157;SDS011;37344;51.948;7.622;2022-09-17T00:09:12;4.43;;;1.03;;
17157;SDS011;37344;51.948;7.622;2022-09-17T00:11:41;4.60;;;0.70;;
17157;SDS011;37344;51.948;7.622;2022-09-17T00:14:12;2.13;;;0.60;;
17157;SDS011;37344;51.948;7.622;2022-09-17T00:16:41;2.97;;;1.10;;
17157;SDS011;37344;51.948;7.622;2022-09-17T00:19:10;2.83;;;0.80;;
17157;SDS011;37344;51.948;7.622;2022-09-17T00:21:38;1.77;;;0.73;;
17157;SDS011;37344;51.948;7.622;2022-09-17T00:24:06;4.37;;;0.83;;
17157;SDS011;37344;51.948;7.622;2022-09-17T00:26:33;2.60;;;0.97;;
17157;SDS011;37344;51.948;7.622;2022-09-17T00:29:03;4.43;;;1.03;;
17157;SDS011;37344;51.948;7.622;2022-09-17T00:31:30;2.53;;;0.80;;
17157;SDS011;37344;51.948;7.622;2022-09-17T00:33:58;5.40;;;1.00;;
17157;SDS011;37344;51.948;7.622;2022-09-17T00:36:25;3.17;;;0.80;;
17157;SDS011;37344;51.948;7.622;2022-09-17T00:38:53;1.20;;;0.70;;
17157;SDS011;37344;51.948;7.622;2022-09-17T00:41:21;2.80;;;1.03;;
17157;SDS011;37344;51.948;7.622;2022-09-17T00:43:50;4.83;;;1.00;;
17157;SDS011;37344;51.948;7.622;2022-09-17T00:46:21;4.00;;;1.00;;
17157;SDS011;37344;51.948;7.622;2022-09-17T00:48:50;1.93;;;0.70;;
17157;SDS011;37344;51.948;7.622;2022-09-17T00:51:19;1.93;;;0.60;;
17157;SDS011;37344;51.948;7.622;2022-09-17T00:53:47;3.60;;;0.77;;
17157;SDS011;37344;51.948;7.622;2022-09-17T00:56:16;2.63;;;0.70;;
17157;SDS011;37344;51.948;7.622;2022-09-17T00:58:45;3.33;;;0.93;;
17157;SDS011;37344;51.948;7.622;2022-09-17T01:01:13;3.60;;;0.73;;
17157;SDS011;37344;51.948;7.622;2022-09-17T01:03:41;4.63;;;1.10;;
17157;SDS011;37344;51.948;7.622;2022-09-17T01:06:11;2.37;;;0.53;;
17157;SDS011;37344;51.948;7.622;2022-09-17T01:08:43;1.80;;;0.73;;
17157;SDS011;37344;51.948;7.622;2022-09-17T01:11:21;2.40;;;0.80;;
17157;SDS011;37344;51.948;7.622;2022-09-17T01:13:56;2.07;;;0.60;;
17157;SDS011;37344;51.948;7.622;2022-09-17T01:16:28;1.13;;;0.70;;
17157;SDS011;37344;51.948;7.622;2022-09-17T01:19:02;1.47;;;0.50;;
17157;SDS011;37344;51.948;7.622;2022-09-17T01:21:38;1.77;;;0.70;;
17157;SDS011;37344;51.948;7.622;2022-09-17T01:24:27;3.70;;;0.97;;
17157;SDS011;37344;51.948;7.622;2022-09-17T01:27:04;2.17;;;0.80;;
17157;SDS011;37344;51.948;7.622;2022-09-17T01:29:38;2.03;;;0.60;;
17157;SDS011;37344;51.948;7.622;2022-09-17T01:32:11;1.53;;;0.63;;
17157;SDS011;37344;51.948;7.622;2022-09-17T01:34:40;1.40;;;0.70;;
17157;SDS011;37344;51.948;7.622;2022-09-17T01:37:12;7.80;;;0.90;;
17157;SDS011;37344;51.948;7.622;2022-09-17T01:39:41;5.67;;;0.97;;
17157;SDS011;37344;51.948;7.622;2022-09-17T01:42:15;2.07;;;0.80;;
17157;SDS011;37344;51.948;7.622;2022-09-17T01:44:46;2.80;;;0.70;;
17157;SDS011;37344;51.948;7.622;2022-09-17T01:47:19;4.00;;;0.80;;
17157;SDS011;37344;51.948;7.622;2022-09-17T01:49:49;2.60;;;0.80;;
17157;SDS011;37344;51.948;7.622;2022-09-17T01:52:17;2.73;;;0.70;;
17157;SDS011;37344;51.948;7.622;2022-09-17T01:54:46;3.93;;;1.10;;
17157;SDS011;37344;51.948;7.622;2022-09-17T01:57:16;4.30;;;0.70;;
17157;SDS011;37344;51.948;7.622;2022-09-17T01:59:46;4.03;;;0.90;;
17157;SDS011;37344;51.948;7.622;2022-09-17T02:02:15;2.87;;;0.93;;
17157;SDS011;37344;51.948;7.622;2022-09-17T02:04:45;2.37;;;0.67;;
17157;SDS011;37344;51.948;7.622;2022-09-17T02:07:15;2.93;;;1.00;;
17157;SDS011;37344;51.948;7.622;2022-09-17T02:09:46;4.03;;;1.00;;
17157;SDS011;37344;51.948;7.622;2022-09-17T02:12:17;1.33;;;0.50;;
17157;SDS011;37344;51.948;7.622;2022-09-17T02:14:46;3.73;;;0.93;;
17157;SDS011;37344;51.948;7.622;2022-09-17T02:17:16;2.10;;;0.77;;
17157;SDS011;37344;51.948;7.622;2022-09-17T02:19:46;2.10;;;0.70;;
17157;SDS011;37344;51.948;7.622;2022-09-17T02:22:15;6.20;;;1.00;;
17157;SDS011;37344;51.948;7.622;2022-09-17T02:24:47;2.73;;;0.70;;
17157;SDS011;37344;51.948;7.622;2022-09-17T02:27:17;2.60;;;0.90;;
17157;SDS011;37344;51.948;7.622;2022-09-17T02:29:45;7.00;;;1.03;;
17157;SDS011;37344;51.948;7.622;2022-09-17T02:32:12;4.23;;;1.07;;
17157;SDS011;37344;51.948;7.622;2022-09-17T02:34:39;3.43;;;0.90;;
17157;SDS011;37344;51.948;7.622;2022-09-17T02:37:08;3.27;;;0.80;;
17157;SDS011;37344;51.948;7.622;2022-09-17T02:39:35;5.80;;;1.03;;
17157;SDS011;37344;51.948;7.622;2022-09-17T02:42:04;2.37;;;0.73;;
17157;SDS011;37344;51.948;7.622;2022-09-17T02:44:37;3.67;;;0.80;;
17157;SDS011;37344;51.948;7.622;2022-09-17T02:47:13;5.10;;;1.10;;
17157;SDS011;37344;51.948;7.622;2022-09-17T02:49:53;3.80;;;0.70;;
17157;SDS011;37344;51.948;7.622;2022-09-17T02:52:26;2.30;;;0.80;;
17157;SDS011;37344;51.948;7.622;2022-09-17T02:54:57;2.60;;;0.60;;
17157;SDS011;37344;51.948;7.622;2022-09-17T02:57:29;2.87;;;0.83;;
17157;SDS011;37344;51.948;7.622;2022-09-17T02:59:59;3.93;;;0.73;;
17157;SDS011;37344;51.948;7.622;2022-09-17T03:02:29;3.77;;;0.80;;
17157;SDS011;37344;51.948;7.622;2022-09-17T03:04:59;4.53;;;0.87;;
17157;SDS011;37344;51.948;7.622;2022-09-17T03:07:29;4.93;;;1.10;;
17157;SDS011;37344;51.948;7.622;2022-09-17T03:09:56;3.00;;;0.93;;
17157;SDS011;37344;51.948;7.622;2022-09-17T03:12:24;2.23;;;0.77;;
17157;SDS011;37344;51.948;7.622;2022-09-17T03:14:52;1.83;;;0.90;;
17157;SDS011;37344;51.948;7.622;2022-09-17T03:17:19;2.10;;;0.70;;
17157;SDS011;37344;51.948;7.622;2022-09-17T03:19:46;3.83;;;1.03;;
17157;SDS011;37344;51.948;7.622;2022-09-17T03:22:13;2.73;;;1.03;;
17157;SDS011;37344;51.948;7.622;2022-09-17T03:24:42;2.70;;;0.93;;
17157;SDS011;37344;51.948;7.622;2022-09-17T03:27:09;2.63;;;0.77;;
17157;SDS011;37344;51.948;7.622;2022-09-17T03:29:37;3.13;;;0.60;;
17157;SDS011;37344;51.948;7.622;2022-09-17T03:32:04;2.10;;;0.63;;
17157;SDS011;37344;51.948;7.622;2022-09-17T03:34:31;1.97;;;0.73;;
17157;SDS011;37344;51.948;7.622;2022-09-17T03:36:59;2.53;;;0.77;;
17157;SDS011;37344;51.948;7.622;2022-09-17T03:39:27;3.97;;;0.80;;
17157;SDS011;37344;51.948;7.622;2022-09-17T03:41:55;4.37;;;0.80;;
17157;SDS011;37344;51.948;7.622;2022-09-17T03:44:22;2.00;;;0.70;;
17157;SDS011;37344;51.948;7.622;2022-09-17T03:46:49;3.47;;;1.10;;
17157;SDS011;37344;51.948;7.622;2022-09-17T03:49:17;2.00;;;0.70;;
17157;SDS011;37344;51.948;7.622;2022-09-17T03:51:44;3.07;;;0.83;;
17157;SDS011;37344;51.948;7.622;2022-09-17T03:54:11;4.50;;;1.00;;
17157;SDS011;37344;51.948;7.622;2022-09-17T03:56:38;1.70;;;0.70;;
17157;SDS011;37344;51.948;7.622;2022-09-17T03:59:07;2.10;;;0.60;;
17157;SDS011;37344;51.948;7.622;2022-09-17T04:01:34;6.53;;;1.07;;
17157;SDS011;37344;51.948;7.622;2022-09-17T04:04:02;5.00;;;0.80;;
17157;SDS011;37344;51.948;7.622;2022-09-17T04:06:29;2.27;;;0.70;;
17157;SDS011;37344;51.948;7.622;2022-09-17T04:08:57;2.97;;;0.77;;
17157;SDS011;37344;51.948;7.622;2022-09-17T04:11:25;2.87;;;0.87;;
17157;SDS011;37344;51.948;7.622;2022-09-17T04:13:52;6.63;;;0.93;;
17157;SDS011;37344;51.948;7.622;2022-09-17T04:16:20;6.30;;;1.17;;
17157;SDS011;37344;51.948;7.622;2022-09-17T04:18:48;4.60;;;0.90;;
17157;SDS011;37344;51.948;7.622;2022-09-17T04:21:15;3.77;;;0.90;;
17157;SDS011;37344;51.948;7.622;2022-09-17T04:23:42;4.03;;;1.10;;
17157;SDS011;37344;51.948;7.622;2022-09-17T04:26:09;4.20;;;0.93;;
17157;SDS011;37344;51.948;7.622;2022-09-17T04:28:36;2.00;;;0.80;;
17157;SDS011;37344;51.948;7.622;2022-09-17T04:31:04;2.53;;;0.87;;
17157;SDS011;37344;51.948;7.622;2022-09-17T04:33:32;3.80;;;0.77;;
17157;SDS011;37344;51.948;7.622;2022-09-17T04:36:00;3.63;;;0.77;;
17157;SDS011;37344;51.948;7.622;2022-09-17T04:38:27;4.60;;;1.13;;
17157;SDS011;37344;51.948;7.622;2022-09-17T04:40:54;2.63;;;0.90;;
17157;SDS011;37344;51.948;7.622;2022-09-17T04:43:22;2.60;;;1.00;;
17157;SDS011;37344;51.948;7.622;2022-09-17T04:45:49;3.37;;;1.13;;
17157;SDS011;37344;51.948;7.622;2022-09-17T04:48:16;2.60;;;0.90;;
17157;SDS011;37344;51.948;7.622;2022-09-17T04:50:45;3.07;;;0.80;;
17157;SDS011;37344;51.948;7.622;2022-09-17T04:53:12;6.83;;;0.90;;
17157;SDS011;37344;51.948;7.622;2022-09-17T04:55:39;4.10;;;1.00;;
17157;SDS011;37344;51.948;7.622;2022-09-17T04:58:08;2.57;;;0.80;;
17157;SDS011;37344;51.948;7.622;2022-09-17T05:00:35;2.73;;;0.73;;
17157;SDS011;37344;51.948;7.622;2022-09-17T05:03:03;3.07;;;0.97;;
17157;SDS011;37344;51.948;7.622;2022-09-17T05:05:30;3.57;;;0.83;;
17157;SDS011;37344;51.948;7.622;2022-09-17T05:07:58;4.03;;;0.70;;
17157;SDS011;37344;51.948;7.622;2022-09-17T05:10:26;1.70;;;0.80;;
17157;SDS011;37344;51.948;7.622;2022-09-17T05:12:54;3.57;;;1.00;;
17157;SDS011;37344;51.948;7.622;2022-09-17T05:15:22;3.70;;;0.80;;
17157;SDS011;37344;51.948;7.622;2022-09-17T05:17:49;3.80;;;0.90;;
17157;SDS011;37344;51.948;7.622;2022-09-17T05:20:16;4.57;;;0.80;;
17157;SDS011;37344;51.948;7.622;2022-09-17T05:22:44;3.30;;;0.87;;
17157;SDS011;37344;51.948;7.622;2022-09-17T05:25:13;3.50;;;0.97;;
17157;SDS011;37344;51.948;7.622;2022-09-17T05:27:41;2.83;;;0.70;;
17157;SDS011;37344;51.948;7.622;2022-09-17T05:30:09;3.03;;;0.90;;
17157;SDS011;37344;51.948;7.622;2022-09-17T05:32:37;2.20;;;0.73;;
17157;SDS011;37344;51.948;7.622;2022-09-17T05:35:05;2.23;;;0.87;;
17157;SDS011;37344;51.948;7.622;2022-09-17T05:37:32;2.93;;;0.80;;
17157;SDS011;37344;51.948;7.622;2022-09-17T05:40:00;3.00;;;0.70;;
17157;SDS011;37344;51.948;7.622;2022-09-17T05:42:29;3.43;;;1.00;;
17157;SDS011;37344;51.948;7.622;2022-09-17T05:44:56;3.03;;;0.70;;
17157;SDS011;37344;51.948;7.622;2022-09-17T05:47:23;2.27;;;0.73;;
17157;SDS011;37344;51.948;7.622;2022-09-17T05:49:51;3.13;;;0.87;;
17157;SDS011;37344;51.948;7.622;2022-09-17T05:52:18;3.70;;;0.80;;
17157;SDS011;37344;51.948;7.622;2022-09-17T05:54:45;5.07;;;1.00;;
17157;SDS011;37344;51.948;7.622;2022-09-17T05:57:13;5.53;;;0.90;;
17157;SDS011;37344;51.948;7.622;2022-09-17T05:59:42;3.33;;;1.10;;
17157;SDS011;37344;51.948;7.622;2022-09-17T06:02:11;4.80;;;1.10;;
17157;SDS011;37344;51.948;7.622;2022-09-17T06:04:39;8.87;;;1.20;;
17157;SDS011;37344;51.948;7.622;2022-09-17T06:07:06;3.60;;;1.00;;
17157;SDS011;37344;51.948;7.622;2022-09-17T06:09:33;5.20;;;1.27;;
17157;SDS011;37344;51.948;7.622;2022-09-17T06:12:02;4.70;;;1.27;;
17157;SDS011;37344;51.948;7.622;2022-09-17T06:14:29;7.17;;;1.23;;
17157;SDS011;37344;51.948;7.622;2022-09-17T06:16:58;4.80;;;0.87;;
17157;SDS011;37344;51.948;7.622;2022-09-17T06:19:26;4.97;;;1.20;;
17157;SDS011;37344;51.948;7.622;2022-09-17T06:21:53;6.10;;;1.20;;
17157;SDS011;37344;51.948;7.622;2022-09-17T06:24:20;2.10;;;1.00;;
17157;SDS011;37344;51.948;7.622;2022-09-17T06:26:47;7.23;;;1.17;;
17157;SDS011;37344;51.948;7.622;2022-09-17T06:29:15;5.73;;;1.00;;
17157;SDS011;37344;51.948;7.622;2022-09-17T06:31:42;14.77;;;1.20;;
17157;SDS011;37344;51.948;7.622;2022-09-17T06:34:11;8.53;;;1.23;;
17157;SDS011;37344;51.948;7.622;2022-09-17T06:36:38;6.70;;;1.30;;
17157;SDS011;37344;51.948;7.622;2022-09-17T06:39:06;4.40;;;1.10;;
17157;SDS011;37344;51.948;7.622;2022-09-17T06:41:33;7.40;;;1.23;;
17157;SDS011;37344;51.948;7.622;2022-09-17T06:44:02;5.30;;;1.43;;
17157;SDS011;37344;51.948;7.622;2022-09-17T06:46:29;7.07;;;1.10;;
17157;SDS011;37344;51.948;7.622;2022-09-17T06:48:56;8.13;;;1.70;;
17157;SDS011;37344;51.948;7.622;2022-09-17T06:51:25;8.57;;;1.30;;
17157;SDS011;37344;51.948;7.622;2022-09-17T06:53:52;12.60;;;1.67;;
17157;SDS011;37344;51.948;7.622;2022-09-17T06:56:20;7.47;;;1.23;;
17157;SDS011;37344;51.948;7.622;2022-09-17T06:58:47;7.53;;;1.67;;
17157;SDS011;37344;51.948;7.622;2022-09-17T07:01:14;9.43;;;1.50;;
17157;SDS011;37344;51.948;7.622;2022-09-17T07:03:41;6.20;;;1.50;;
17157;SDS011;37344;51.948;7.622;2022-09-17T07:06:09;10.43;;;2.00;;
17157;SDS011;37344;51.948;7.622;2022-09-17T07:08:38;7.83;;;1.47;;
17157;SDS011;37344;51.948;7.622;2022-09-17T07:11:05;9.53;;;1.30;;
17157;SDS011;37344;51.948;7.622;2022-09-17T07:13:33;7.23;;;0.97;;
17157;SDS011;37344;51.948;7.622;2022-09-17T07:16:01;8.03;;;1.60;;
17157;SDS011;37344;51.948;7.622;2022-09-17T07:18:29;6.93;;;1.53;;
17157;SDS011;37344;51.948;7.622;2022-09-17T07:20:56;5.73;;;1.37;;
17157;SDS011;37344;51.948;7.622;2022-09-17T07:23:25;5.03;;;1.10;;
17157;SDS011;37344;51.948;7.622;2022-09-17T07:25:55;12.60;;;1.57;;
17157;SDS011;37344;51.948;7.622;2022-09-17T07:28:23;12.23;;;1.73;;
17157;SDS011;37344;51.948;7.622;2022-09-17T07:30:51;12.20;;;1.53;;
17157;SDS011;37344;51.948;7.622;2022-09-17T07:33:19;8.60;;;1.67;;
17157;SDS011;37344;51.948;7.622;2022-09-17T07:35:51;7.17;;;1.80;;
17157;SDS011;37344;51.948;7.622;2022-09-17T07:38:19;8.43;;;1.60;;
17157;SDS011;37344;51.948;7.622;2022-09-17T07:40:51;6.03;;;1.67;;
17157;SDS011;37344;51.948;7.622;2022-09-17T07:43:21;4.97;;;1.27;;
17157;SDS011;37344;51.948;7.622;2022-09-17T07:45:48;5.43;;;1.30;;
17157;SDS011;37344;51.948;7.622;2022-09-17T07:48:15;3.27;;;0.93;;
17157;SDS011;37344;51.948;7.622;2022-09-17T07:50:42;3.97;;;1.27;;
17157;SDS011;37344;51.948;7.622;2022-09-17T07:53:10;7.97;;;1.50;;
17157;SDS011;37344;51.948;7.622;2022-09-17T07:55:37;9.60;;;1.37;;
17157;SDS011;37344;51.948;7.622;2022-09-17T07:58:04;5.30;;;1.20;;
17157;SDS011;37344;51.948;7.622;2022-09-17T08:00:33;5.13;;;1.10;;
17157;SDS011;37344;51.948;7.622;2022-09-17T08:03:02;4.43;;;1.13;;
17157;SDS011;37344;51.948;7.622;2022-09-17T08:05:30;6.10;;;1.20;;
17157;SDS011;37344;51.948;7.622;2022-09-17T08:07:58;6.15;;;1.20;;
17157;SDS011;37344;51.948;7.622;2022-09-17T08:10:25;3.13;;;0.95;;
17157;SDS011;37344;51.948;7.622;2022-09-17T08:12:54;3.30;;;1.02;;
17157;SDS011;37344;51.948;7.622;2022-09-17T08:15:22;3.40;;;1.05;;
17157;SDS011;37344;51.948;7.622;2022-09-17T08:17:50;3.73;;;1.00;;
17157;SDS011;37344;51.948;7.622;2022-09-17T09:26:36;3.80;;;1.10;;
17157;SDS011;37344;51.948;7.622;2022-09-17T09:29:08;2.50;;;0.70;;
17157;SDS011;37344;51.948;7.622;2022-09-17T09:31:57;2.40;;;0.88;;
17157;SDS011;37344;51.948;7.622;2022-09-17T09:34:27;4.38;;;0.95;;
17157;SDS011;37344;51.948;7.622;2022-09-17T09:36:57;3.38;;;0.90;;
17157;SDS011;37344;51.948;7.622;2022-09-17T09:39:28;3.05;;;0.88;;
17157;SDS011;37344;51.948;7.622;2022-09-17T09:47:01;3.03;;;0.70;;
17157;SDS011;37344;51.948;7.622;2022-09-17T09:49:34;2.17;;;0.85;;
17157;SDS011;37344;51.948;7.622;2022-09-17T09:54:40;2.55;;;0.60;;
17157;SDS011;37344;51.948;7.622;2022-09-17T09:57:11;4.57;;;0.70;;
17157;SDS011;37344;51.948;7.622;2022-09-17T09:59:39;2.38;;;0.85;;
17157;SDS011;37344;51.948;7.622;2022-09-17T10:02:08;2.45;;;0.65;;
17157;SDS011;37344;51.948;7.622;2022-09-17T10:04:36;1.95;;;0.80;;
17157;SDS011;37344;51.948;7.622;2022-09-17T10:07:04;2.30;;;0.80;;
17157;SDS011;37344;51.948;7.622;2022-09-17T10:09:32;3.42;;;0.60;;
17157;SDS011;37344;51.948;7.622;2022-09-17T10:12:02;4.25;;;1.05;;
17157;SDS011;37344;51.948;7.622;2022-09-17T10:14:30;2.50;;;0.70;;
17157;SDS011;37344;51.948;7.622;2022-09-17T10:17:13;5.45;;;1.00;;
17157;SDS011;37344;51.948;7.622;2022-09-17T10:19:42;3.35;;;0.60;;
17157;SDS011;37344;51.948;7.622;2022-09-17T10:24:54;1.60;;;0.70;;
17157;SDS011;37344;51.948;7.622;2022-09-17T10:27:23;1.77;;;0.60;;
17157;SDS011;37344;51.948;7.622;2022-09-17T10:29:51;5.93;;;0.90;;
17157;SDS011;37344;51.948;7.622;2022-09-17T10:32:21;2.67;;;0.80;;
17157;SDS011;37344;51.948;7.622;2022-09-17T10:35:02;1.27;;;0.57;;
17157;SDS011;37344;51.948;7.622;2022-09-17T10:37:31;2.78;;;0.73;;
17157;SDS011;37344;51.948;7.622;2022-09-17T10:39:58;2.58;;;0.60;;
17157;SDS011;37344;51.948;7.622;2022-09-17T10:42:26;2.83;;;0.60;;
17157;SDS011;37344;51.948;7.622;2022-09-17T10:44:53;3.13;;;0.88;;
17157;SDS011;37344;51.948;7.622;2022-09-17T10:47:23;2.05;;;0.88;;
17157;SDS011;37344;51.948;7.622;2022-09-17T10:49:53;2.60;;;0.88;;
17157;SDS011;37344;51.948;7.622;2022-09-17T10:52:25;1.33;;;0.50;;
17157;SDS011;37344;51.948;7.622;2022-09-17T10:54:58;1.73;;;0.45;;
17157;SDS011;37344;51.948;7.622;2022-09-17T10:57:32;1.83;;;0.55;;
17157;SDS011;37344;51.948;7.622;2022-09-17T11:00:03;3.67;;;0.88;;
17157;SDS011;37344;51.948;7.622;2022-09-17T11:02:43;3.53;;;0.70;;
17157;SDS011;37344;51.948;7.622;2022-09-17T11:05:25;4.55;;;0.80;;
17157;SDS011;37344;51.948;7.622;2022-09-17T11:07:59;2.33;;;0.82;;
17157;SDS011;37344;51.948;7.622;2022-09-17T11:10:29;3.35;;;0.80;;
17157;SDS011;37344;51.948;7.622;2022-09-17T11:13:04;1.98;;;0.60;;
17157;SDS011;37344;51.948;7.622;2022-09-17T11:15:38;4.30;;;0.85;;
17157;SDS011;37344;51.948;7.622;2022-09-17T11:21:01;2.10;;;0.65;;
17157;SDS011;37344;51.948;7.622;2022-09-17T11:23:47;0.88;;;0.47;;
17157;SDS011;37344;51.948;7.622;2022-09-17T11:26:24;0.68;;;0.40;;
17157;SDS011;37344;51.948;7.622;2022-09-17T11:28:57;1.47;;;0.43;;
17157;SDS011;37344;51.948;7.622;2022-09-17T11:31:31;2.97;;;0.57;;
17157;SDS011;37344;51.948;7.622;2022-09-17T11:36:47;1.33;;;0.60;;
17157;SDS011;37344;51.948;7.622;2022-09-17T11:39:17;2.60;;;0.75;;
17157;SDS011;37344;51.948;7.622;2022-09-17T11:41:47;1.58;;;0.63;;
17157;SDS011;37344;51.948;7.622;2022-09-17T11:44:19;2.78;;;0.70;;
17157;SDS011;37344;51.948;7.622;2022-09-17T11:46:50;1.40;;;0.50;;
17157;SDS011;37344;51.948;7.622;2022-09-17T11:49:36;2.33;;;0.60;;
17157;SDS011;37344;51.948;7.622;2022-09-17T11:52:07;2.27;;;0.60;;
17157;SDS011;37344;51.948;7.622;2022-09-17T11:54:37;1.75;;;0.60;;
17157;SDS011;37344;51.948;7.622;2022-09-17T11:57:05;1.33;;;0.50;;
17157;SDS011;37344;51.948;7.622;2022-09-17T11:59:37;0.52;;;0.32;;
17157;SDS011;37344;51.948;7.622;2022-09-17T12:02:09;2.83;;;0.50;;
17157;SDS011;37344;51.948;7.622;2022-09-17T12:04:41;1.83;;;0.52;;
17157;SDS011;37344;51.948;7.622;2022-09-17T12:07:16;2.58;;;0.63;;
17157;SDS011;37344;51.948;7.622;2022-09-17T12:09:47;0.88;;;0.43;;
17157;SDS011;37344;51.948;7.622;2022-09-17T12:12:16;0.75;;;0.40;;
17157;SDS011;37344;51.948;7.622;2022-09-17T12:14:45;1.05;;;0.40;;
17157;SDS011;37344;51.948;7.622;2022-09-17T12:17:16;1.00;;;0.40;;
17157;SDS011;37344;51.948;7.622;2022-09-17T12:19:46;2.10;;;0.75;;
17157;SDS011;37344;51.948;7.622;2022-09-17T12:22:17;2.15;;;0.40;;
17157;SDS011;37344;51.948;7.622;2022-09-17T12:24:49;1.77;;;0.60;;
17157;SDS011;37344;51.948;7.622;2022-09-17T12:27:18;1.90;;;0.47;;
17157;SDS011;37344;51.948;7.622;2022-09-17T12:32:41;2.35;;;0.50;;
17157;SDS011;37344;51.948;7.622;2022-09-17T12:35:15;1.10;;;0.60;;
17157;SDS011;37344;51.948;7.622;2022-09-17T12:38:00;1.17;;;0.47;;
17157;SDS011;37344;51.948;7.622;2022-09-17T12:40:30;0.77;;;0.47;;
17157;SDS011;37344;51.948;7.622;2022-09-17T12:43:05;2.10;;;0.57;;
17157;SDS011;37344;51.948;7.622;2022-09-17T12:45:42;2.33;;;0.73;;
17157;SDS011;37344;51.948;7.622;2022-09-17T12:48:23;2.45;;;0.60;;
17157;SDS011;37344;51.948;7.622;2022-09-17T12:50:58;0.85;;;0.43;;
17157;SDS011;37344;51.948;7.622;2022-09-17T12:53:32;0.52;;;0.35;;
17157;SDS011;37344;51.948;7.622;2022-09-17T12:56:04;1.73;;;0.50;;
17157;SDS011;37344;51.948;7.622;2022-09-17T12:58:36;1.85;;;0.50;;
17157;SDS011;37344;51.948;7.622;2022-09-17T13:01:10;1.65;;;0.60;;
17157;SDS011;37344;51.948;7.622;2022-09-17T13:03:40;1.42;;;0.47;;
17157;SDS011;37344;51.948;7.622;2022-09-17T13:12:04;0.50;;;0.40;;
17157;SDS011;37344;51.948;7.622;2022-09-17T13:14:36;2.22;;;0.40;;
17157;SDS011;37344;51.948;7.622;2022-09-17T13:17:09;0.77;;;0.38;;
17157;SDS011;37344;51.948;7.622;2022-09-17T13:19:40;1.42;;;0.40;;
17157;SDS011;37344;51.948;7.622;2022-09-17T13:22:12;2.23;;;0.47;;
17157;SDS011;37344;51.948;7.622;2022-09-17T13:24:42;1.63;;;0.50;;
17157;SDS011;37344;51.948;7.622;2022-09-17T13:27:19;1.38;;;0.32;;
17157;SDS011;37344;51.948;7.622;2022-09-17T13:29:56;0.85;;;0.60;;
17157;SDS011;37344;51.948;7.622;2022-09-17T13:38:04;1.63;;;0.55;;
17157;SDS011;37344;51.948;7.622;2022-09-17T13:40:31;2.00;;;0.45;;
17157;SDS011;37344;51.948;7.622;2022-09-17T13:43:06;1.13;;;0.40;;
17157;SDS011;37344;51.948;7.622;2022-09-17T13:46:03;0.57;;;0.30;;
17157;SDS011;37344;51.948;7.622;2022-09-17T13:48:22;3.50;;;0.52;;
17157;SDS011;37344;51.948;7.622;2022-09-17T13:50:50;0.40;;;0.30;;
17157;SDS011;37344;51.948;7.622;2022-09-17T13:53:18;1.35;;;0.47;;
17157;SDS011;37344;51.948;7.622;2022-09-17T13:55:51;2.22;;;0.40;;
17157;SDS011;37344;51.948;7.622;2022-09-17T13:58:22;0.43;;;0.20;;
17157;SDS011;37344;51.948;7.622;2022-09-17T14:00:52;1.53;;;0.40;;
17157;SDS011;37344;51.948;7.622;2022-09-17T14:08:49;2.33;;;0.60;;
17157;SDS011;37344;51.948;7.622;2022-09-17T14:11:35;1.80;;;0.40;;
17157;SDS011;37344;51.948;7.622;2022-09-17T14:16:58;1.17;;;0.40;;
17157;SDS011;37344;51.948;7.622;2022-09-17T14:19:31;0.50;;;0.37;;
17157;SDS011;37344;51.948;7.622;2022-09-17T14:22:02;2.25;;;0.60;;
17157;SDS011;37344;51.948;7.622;2022-09-17T14:24:33;2.35;;;0.60;;
17157;SDS011;37344;51.948;7.622;2022-09-17T14:27:10;1.60;;;0.50;;
17157;SDS011;37344;51.948;7.622;2022-09-17T14:29:42;1.43;;;0.40;;
17157;SDS011;37344;51.948;7.622;2022-09-17T14:32:16;1.70;;;0.40;;
17157;SDS011;37344;51.948;7.622;2022-09-17T14:34:45;1.17;;;0.73;;
17157;SDS011;37344;51.948;7.622;2022-09-17T14:37:13;1.13;;;0.40;;
17157;SDS011;37344;51.948;7.622;2022-09-17T14:39:42;1.52;;;0.55;;
17157;SDS011;37344;51.948;7.622;2022-09-17T14:42:12;2.38;;;0.98;;
17157;SDS011;37344;51.948;7.622;2022-09-17T14:44:46;1.57;;;0.43;;
17157;SDS011;37344;51.948;7.622;2022-09-17T14:47:16;0.83;;;0.40;;
17157;SDS011;37344;51.948;7.622;2022-09-17T14:49:46;0.67;;;0.40;;
17157;SDS011;37344;51.948;7.622;2022-09-17T14:52:27;1.27;;;0.30;;
17157;SDS011;37344;51.948;7.622;2022-09-17T14:55:08;1.50;;;0.40;;
17157;SDS011;37344;51.948;7.622;2022-09-17T14:57:36;1.23;;;0.43;;
17157;SDS011;37344;51.948;7.622;2022-09-17T15:00:03;2.40;;;0.53;;
17157;SDS011;37344;51.948;7.622;2022-09-17T15:02:34;0.60;;;0.30;;
17157;SDS011;37344;51.948;7.622;2022-09-17T15:05:14;2.07;;;0.50;;
17157;SDS011;37344;51.948;7.622;2022-09-17T15:07:42;1.17;;;0.30;;
17157;SDS011;37344;51.948;7.622;2022-09-17T15:10:12;1.30;;;0.40;;
17157;SDS011;37344;51.948;7.622;2022-09-17T15:12:40;1.03;;;0.30;;
17157;SDS011;37344;51.948;7.622;2022-09-17T15:15:11;2.60;;;0.63;;
17157;SDS011;37344;51.948;7.622;2022-09-17T15:17:42;1.08;;;0.40;;
17157;SDS011;37344;51.948;7.622;2022-09-17T15:20:11;0.87;;;0.30;;
17157;SDS011;37344;51.948;7.622;2022-09-17T15:22:41;0.53;;;0.30;;
17157;SDS011;37344;51.948;7.622;2022-09-17T15:25:12;1.23;;;0.40;;
17157;SDS011;37344;51.948;7.622;2022-09-17T15:27:40;1.23;;;0.50;;
17157;SDS011;37344;51.948;7.622;2022-09-17T15:30:10;1.13;;;0.50;;
17157;SDS011;37344;51.948;7.622;2022-09-17T15:32:39;2.87;;;0.60;;
17157;SDS011;37344;51.948;7.622;2022-09-17T15:35:14;1.73;;;0.60;;
17157;SDS011;37344;51.948;7.622;2022-09-17T15:37:42;1.80;;;0.50;;
17157;SDS011;37344;51.948;7.622;2022-09-17T15:40:11;0.90;;;0.40;;
17157;SDS011;37344;51.948;7.622;2022-09-17T15:42:38;1.90;;;0.40;;
17157;SDS011;37344;51.948;7.622;2022-09-17T15:45:07;0.90;;;0.30;;
17157;SDS011;37344;51.948;7.622;2022-09-17T15:47:35;1.83;;;0.57;;
17157;SDS011;37344;51.948;7.622;2022-09-17T15:50:13;1.13;;;0.30;;
17157;SDS011;37344;51.948;7.622;2022-09-17T15:52:41;1.50;;;0.50;;
17157;SDS011;37344;51.948;7.622;2022-09-17T15:55:28;1.67;;;0.43;;
17157;SDS011;37344;51.948;7.622;2022-09-17T15:57:56;1.63;;;0.50;;
17157;SDS011;37344;51.948;7.622;2022-09-17T16:00:23;2.33;;;0.40;;
17157;SDS011;37344;51.948;7.622;2022-09-17T16:02:51;1.33;;;0.50;;
17157;SDS011;37344;51.948;7.622;2022-09-17T16:08:17;0.57;;;0.40;;
17157;SDS011;37344;51.948;7.622;2022-09-17T16:10:46;0.63;;;0.30;;
17157;SDS011;37344;51.948;7.622;2022-09-17T16:13:13;0.60;;;0.30;;
17157;SDS011;37344;51.948;7.622;2022-09-17T16:15:40;2.13;;;0.50;;
17157;SDS011;37344;51.948;7.622;2022-09-17T16:18:10;3.67;;;0.40;;
17157;SDS011;37344;51.948;7.622;2022-09-17T16:20:38;1.07;;;0.40;;
17157;SDS011;37344;51.948;7.622;2022-09-17T16:23:05;2.00;;;0.40;;
17157;SDS011;37344;51.948;7.622;2022-09-17T16:25:33;3.63;;;0.47;;
17157;SDS011;37344;51.948;7.622;2022-09-17T16:28:05;1.03;;;0.40;;
17157;SDS011;37344;51.948;7.622;2022-09-17T16:30:32;2.60;;;0.50;;
17157;SDS011;37344;51.948;7.622;2022-09-17T16:32:59;1.20;;;0.43;;
17157;SDS011;37344;51.948;7.622;2022-09-17T16:35:28;1.10;;;0.60;;
17157;SDS011;37344;51.948;7.622;2022-09-17T16:37:55;2.50;;;0.73;;
17157;SDS011;37344;51.948;7.622;2022-09-17T16:40:23;1.40;;;0.60;;
17157;SDS011;37344;51.948;7.622;2022-09-17T16:42:53;1.20;;;0.40;;
17157;SDS011;37344;51.948;7.622;2022-09-17T16:45:20;2.10;;;0.50;;
17157;SDS011;37344;51.948;7.622;2022-09-17T16:47:47;2.87;;;0.50;;
17157;SDS011;37344;51.948;7.622;2022-09-17T16:50:15;2.33;;;0.80;;
17157;SDS011;37344;51.948;7.622;2022-09-17T16:52:43;2.93;;;0.60;;